Time;durP1;ratioP1;P1;durP2;ratioP2;P2;SDS_P1;SDS_P2;PMS_P1;PMS_P2;Temp;Humidity;BMP_temperature;BMP_pressure;BME280_temperature;BME280_humidity;BME280_pressure;Samples;Min_cycle;Max_cycle;Signal;HPM_P1;HPM_P2
2021/12/14 00:02:28;;;;;;;28.75;18.37;;;1.20;99.90;;;;;;1933795;72;22192;-91
2021/12/14 00:05:22;;;;;;;29.02;18.62;;;1.10;99.90;;;;;;1900272;75;21104;-90
2021/12/14 00:08:16;;;;;;;29.75;18.48;;;1.10;99.90;;;;;;1905247;75;21117;-90
2021/12/14 00:11:26;;;;;;;30.25;18.40;;;1.20;99.90;;;;;;1905274;75;21051;-90
2021/12/14 00:15:02;;;;;;;33.13;19.00;;;1.10;99.90;;;;;;1895201;75;21063;-90
2021/12/14 00:17:23;;;;;;;28.20;19.15;;;1.10;99.90;;;;;;1904925;75;21146;-90
2021/12/14 00:20:19;;;;;;;29.95;18.42;;;1.10;99.90;;;;;;1905339;75;21117;-91
2021/12/14 00:25:53;;;;;;;28.27;18.00;;;1.10;99.90;;;;;;1946624;72;22277;-90
2021/12/14 00:28:46;;;;;;;29.18;19.20;;;1.10;99.90;;;;;;1901718;75;21104;-89
2021/12/14 00:31:38;;;;;;;28.70;18.05;;;1.10;99.90;;;;;;1900446;75;21099;-90
2021/12/14 00:34:37;;;;;;;30.45;17.95;;;1.10;99.90;;;;;;1872957;75;21096;-90
2021/12/14 00:37:48;;;;;;;30.90;18.52;;;1.20;99.90;;;;;;1887012;75;21134;-89
2021/12/14 00:40:42;;;;;;;29.57;18.12;;;1.20;99.90;;;;;;1903038;75;21168;-91
2021/12/14 00:46:13;;;;;;;32.53;18.75;;;1.20;99.90;;;;;;1956352;72;22103;-91
2021/12/14 00:49:05;;;;;;;31.40;18.30;;;1.20;99.90;;;;;;1913974;74;21136;-90
2021/12/14 00:54:39;;;;;;;29.72;19.05;;;1.20;99.90;;;;;;1958161;72;22084;-90
2021/12/14 00:57:31;;;;;;;31.62;19.25;;;1.10;99.90;;;;;;1873736;75;21068;-91
2021/12/14 01:03:07;;;;;;;27.77;18.52;;;1.00;99.90;;;;;;1937625;72;22205;-91
2021/12/14 01:05:59;;;;;;;33.58;19.52;;;1.00;99.90;;;;;;1917914;75;21542;-90
2021/12/14 01:08:52;;;;;;;27.82;18.90;;;1.00;99.90;;;;;;1895463;75;21067;-91
2021/12/14 01:11:47;;;;;;;31.85;19.52;;;1.00;99.90;;;;;;1895902;75;21103;-91
2021/12/14 01:18:01;;;;;;;33.38;20.00;;;0.80;99.90;;;;;;1961504;72;22236;-91
2021/12/14 01:20:50;;;;;;;32.48;19.65;;;0.90;99.90;;;;;;1924550;73;21082;-89
2021/12/14 01:23:45;;;;;;;31.82;19.42;;;0.90;99.90;;;;;;1917932;75;21059;-89
2021/12/14 01:29:23;;;;;;;31.70;19.30;;;0.70;99.90;;;;;;1976480;72;22107;-90
2021/12/14 01:32:14;;;;;;;28.70;18.82;;;0.70;99.90;;;;;;1931153;73;21060;-90
2021/12/14 01:35:12;;;;;;;27.65;18.48;;;0.70;99.90;;;;;;1917894;75;21058;-89
2021/12/14 01:38:16;;;;;;;29.75;18.67;;;0.70;99.90;;;;;;1926396;73;21154;-90
2021/12/14 01:41:17;;;;;;;30.05;18.70;;;0.70;99.90;;;;;;1917726;75;21059;-90
2021/12/14 01:44:09;;;;;;;30.52;18.98;;;0.70;99.90;;;;;;1917664;75;21094;-90
2021/12/14 01:47:06;;;;;;;31.95;19.92;;;0.70;99.90;;;;;;1917917;75;21165;-89
2021/12/14 01:50:18;;;;;;;30.12;18.67;;;0.60;99.90;;;;;;1917805;75;21186;-90
2021/12/14 01:53:27;;;;;;;32.78;18.92;;;0.60;99.90;;;;;;1939467;73;21170;-90
2021/12/14 01:56:22;;;;;;;30.97;19.17;;;0.70;99.90;;;;;;1935287;73;21139;-89
2021/12/14 01:59:21;;;;;;;29.12;18.80;;;0.70;99.90;;;;;;1917558;75;21067;-90
2021/12/14 02:02:22;;;;;;;27.22;18.20;;;0.70;99.90;;;;;;1917680;75;21169;-90
2021/12/14 02:08:08;;;;;;;30.30;18.30;;;0.70;99.90;;;;;;1957813;72;22097;-90
2021/12/14 02:11:02;;;;;;;28.80;17.87;;;0.70;99.90;;;;;;1905555;75;21189;-89
2021/12/14 02:13:56;;;;;;;26.57;17.32;;;0.60;99.90;;;;;;1922147;73;21063;-91
2021/12/14 02:16:52;;;;;;;28.60;18.27;;;0.60;99.90;;;;;;1905577;75;21044;-91
2021/12/14 02:20:02;;;;;;;27.05;17.82;;;0.70;99.90;;;;;;1905340;75;21118;-90
2021/12/14 02:25:34;;;;;;;28.55;17.25;;;0.80;99.90;;;;;;1958310;72;22127;-91
2021/12/14 02:31:07;;;;;;;31.97;18.12;;;0.70;99.90;;;;;;1951777;72;22639;-91
2021/12/14 02:34:02;;;;;;;31.23;18.15;;;0.70;99.90;;;;;;1848544;77;21077;-90
2021/12/14 02:39:47;;;;;;;30.90;18.98;;;0.60;99.90;;;;;;1927419;72;22197;-91
2021/12/14 02:42:39;;;;;;;29.87;19.23;;;0.60;99.90;;;;;;1897407;75;21118;-91
2021/12/14 02:45:30;;;;;;;28.23;17.95;;;0.60;99.90;;;;;;1903564;75;21048;-91
2021/12/14 02:51:09;;;;;;;29.80;18.85;;;0.60;99.90;;;;;;1952640;72;22189;-90
2021/12/14 02:54:04;;;;;;;28.60;18.25;;;0.50;99.90;;;;;;1885794;75;21168;-90
2021/12/14 02:59:48;;;;;;;28.55;17.37;;;0.50;99.90;;;;;;1954443;72;22271;-89
2021/12/14 03:05:22;;;;;;;26.20;16.75;;;0.40;99.90;;;;;;1939218;72;22157;-91
2021/12/14 03:11:10;;;;;;;27.82;17.32;;;0.40;99.90;;;;;;1957381;72;22603;-90
2021/12/14 03:14:02;;;;;;;28.50;18.30;;;0.40;99.90;;;;;;1917637;75;21039;-89
2021/12/14 03:19:44;;;;;;;28.73;16.42;;;0.40;99.90;;;;;;1950082;72;22274;-89
2021/12/14 03:25:19;;;;;;;26.95;17.75;;;0.30;99.90;;;;;;1976122;72;22119;-90
2021/12/14 03:28:13;;;;;;;29.27;17.30;;;0.30;99.90;;;;;;1937213;73;21098;-90
2021/12/14 03:31:19;;;;;;;29.12;18.73;;;0.40;99.90;;;;;;1951507;73;21070;-90
2021/12/14 03:36:55;;;;;;;31.12;18.60;;;0.30;99.90;;;;;;1948174;72;22104;-90
2021/12/14 03:39:49;;;;;;;33.00;19.65;;;0.20;99.90;;;;;;1872966;75;21161;-89
2021/12/14 03:42:44;;;;;;;32.00;19.05;;;0.20;99.90;;;;;;1895706;75;21040;-90
2021/12/14 03:45:37;;;;;;;31.02;19.23;;;0.30;99.90;;;;;;1905368;75;21067;-90
2021/12/14 03:48:48;;;;;;;32.38;18.87;;;0.30;99.90;;;;;;1901756;75;21149;-91
2021/12/14 03:51:41;;;;;;;33.30;19.02;;;0.30;99.90;;;;;;1905490;75;21110;-89
2021/12/14 03:54:32;;;;;;;32.23;18.95;;;0.30;99.90;;;;;;1886682;75;21091;-89
2021/12/14 03:57:24;;;;;;;33.13;18.75;;;0.30;99.90;;;;;;1905439;75;21148;-89
2021/12/14 04:00:21;;;;;;;31.93;18.30;;;0.30;99.90;;;;;;1882488;75;21107;-89
2021/12/14 04:03:15;;;;;;;34.20;19.45;;;0.30;99.90;;;;;;1903842;75;21178;-90
2021/12/14 04:06:20;;;;;;;32.28;18.75;;;0.40;99.90;;;;;;1892406;75;21107;-89
2021/12/14 04:12:05;;;;;;;30.65;17.60;;;0.40;99.90;;;;;;1943275;72;22297;-90
2021/12/14 04:14:59;;;;;;;28.80;18.85;;;0.40;99.90;;;;;;1918981;75;21187;-88
2021/12/14 04:17:53;;;;;;;28.77;17.60;;;0.40;99.90;;;;;;1940388;73;21098;-90
2021/12/14 04:20:46;;;;;;;29.48;18.02;;;0.50;99.90;;;;;;1951602;73;21094;-90
2021/12/14 04:23:56;;;;;;;33.23;18.25;;;0.50;99.90;;;;;;1917763;75;21473;-89
2021/12/14 04:26:49;;;;;;;32.13;18.92;;;0.40;99.90;;;;;;1940332;73;21067;-89
2021/12/14 04:29:41;;;;;;;33.65;17.70;;;0.50;99.90;;;;;;1917661;75;21162;-89
2021/12/14 04:32:32;;;;;;;36.20;17.90;;;0.50;99.90;;;;;;1918756;73;21098;-88
2021/12/14 04:35:25;;;;;;;36.58;18.32;;;0.50;99.90;;;;;;1933273;73;21047;-89
2021/12/14 04:38:22;;;;;;;35.63;18.57;;;0.60;99.90;;;;;;1938723;73;21124;-92
2021/12/14 04:53:44;;;;;;;40.40;19.62;;;0.60;99.90;;;;;;1887500;74;21102;-90
2021/12/14 04:59:24;;;;;;;34.90;18.45;;;0.70;99.90;;;;;;1976163;72;22131;-91
2021/12/14 05:02:20;;;;;;;36.55;19.27;;;0.70;99.90;;;;;;1919914;73;21116;-91
2021/12/14 05:05:22;;;;;;;34.08;17.98;;;0.80;99.90;;;;;;1929879;73;21142;-90
2021/12/14 05:11:59;;;;;;;42.75;19.45;;;0.70;99.90;;;;;;1888678;75;21171;-90
2021/12/14 05:14:53;;;;;;;36.68;18.07;;;0.80;99.90;;;;;;1916389;75;21136;-91
2021/12/14 05:17:47;;;;;;;37.35;18.67;;;0.90;99.90;;;;;;1926312;73;21139;-90
2021/12/14 05:20:42;;;;;;;35.80;18.23;;;0.80;99.90;;;;;;1933757;73;21125;-92
2021/12/14 05:23:36;;;;;;;37.28;18.37;;;0.80;99.90;;;;;;1940142;73;21113;-92
2021/12/14 05:26:29;;;;;;;38.17;19.05;;;0.80;99.90;;;;;;1917771;73;21119;-91
2021/12/14 05:29:23;;;;;;;42.05;19.90;;;0.90;99.90;;;;;;1917597;75;21158;-89
2021/12/14 05:34:53;;;;;;;41.70;20.02;;;1.00;99.90;;;;;;1942371;72;22248;-90
2021/12/14 05:37:50;;;;;;;41.83;19.57;;;1.00;99.90;;;;;;1905634;75;21113;-90
2021/12/14 05:40:56;;;;;;;39.03;19.17;;;1.00;99.90;;;;;;1905254;75;21490;-89
2021/12/14 05:43:37;;;;;;;46.00;20.97;;;1.00;99.90;;;;;;1900295;75;21067;-90
2021/12/14 05:46:57;;;;;;;41.00;19.27;;;1.00;99.90;;;;;;1873264;76;21107;-91
2021/12/14 05:49:59;;;;;;;42.62;20.45;;;1.00;99.90;;;;;;1884575;75;21091;-92
2021/12/14 05:55:33;;;;;;;44.73;20.80;;;0.90;99.90;;;;;;1929766;72;22121;-89
2021/12/14 06:01:08;;;;;;;43.92;19.75;;;1.00;99.90;;;;;;1958416;72;22123;-91
2021/12/14 06:04:05;;;;;;;46.20;20.65;;;0.90;99.90;;;;;;1917393;75;21110;-90
2021/12/14 06:10:15;;;;;;;48.92;21.33;;;1.00;99.90;;;;;;1983375;71;22231;-90
2021/12/14 06:15:46;;;;;;;47.45;20.12;;;1.10;99.90;;;;;;1958883;72;22128;-90
2021/12/14 06:18:39;;;;;;;45.65;18.85;;;1.20;99.90;;;;;;1898250;75;21121;-90
2021/12/14 06:21:35;;;;;;;45.95;20.02;;;1.20;99.90;;;;;;1883979;75;21125;-92
2021/12/14 06:24:31;;;;;;;39.88;18.82;;;1.20;99.90;;;;;;1894984;75;21174;-90
2021/12/14 06:27:41;;;;;;;38.35;18.00;;;1.30;99.90;;;;;;1881620;75;21118;-90
2021/12/14 06:30:41;;;;;;;42.62;19.32;;;1.40;99.90;;;;;;1904892;75;21064;-91
2021/12/14 06:36:13;;;;;;;37.33;17.30;;;1.30;99.90;;;;;;1950014;72;22193;-90
2021/12/14 06:39:07;;;;;;;35.88;16.82;;;1.40;99.90;;;;;;1889419;75;21092;-90
2021/12/14 06:42:06;;;;;;;39.78;17.32;;;1.40;99.90;;;;;;1885125;75;21114;-91
2021/12/14 06:45:09;;;;;;;39.30;17.90;;;1.40;99.90;;;;;;1873038;76;21123;-90
2021/12/14 06:48:24;;;;;;;44.47;19.03;;;1.40;99.90;;;;;;1873618;76;21088;-91
2021/12/14 06:51:20;;;;;;;42.67;18.65;;;1.40;99.90;;;;;;1873085;76;21121;-91
2021/12/14 06:54:16;;;;;;;38.58;18.00;;;1.50;99.90;;;;;;1904781;75;21083;-92
2021/12/14 06:57:27;;;;;;;42.50;18.32;;;1.50;99.90;;;;;;1883624;75;21044;-92
2021/12/14 07:00:26;;;;;;;44.85;19.07;;;1.50;99.90;;;;;;1883640;75;21189;-90
2021/12/14 07:19:45;;;;;;;51.77;24.80;;;1.60;99.90;;;;;;1954996;72;28039;-91
2021/12/14 07:22:43;;;;;;;39.30;18.92;;;1.70;99.90;;;;;;1917837;75;21102;-90
2021/12/14 07:25:38;;;;;;;30.25;15.13;;;1.70;99.90;;;;;;1917718;75;21113;-90
2021/12/14 07:28:33;;;;;;;33.90;14.85;;;1.70;99.90;;;;;;1880136;76;21055;-92
2021/12/14 07:34:26;;;;;;;27.10;12.75;;;1.70;99.90;;;;;;1947248;72;22290;-91
2021/12/14 07:40:01;;;;;;;29.90;13.68;;;1.70;99.90;;;;;;1954660;72;22131;-90
2021/12/14 07:43:11;;;;;;;26.05;12.47;;;1.60;99.90;;;;;;1913406;74;21096;-91
2021/12/14 07:46:14;;;;;;;33.35;13.30;;;1.70;99.90;;;;;;1885348;75;21200;-91
2021/12/14 07:49:10;;;;;;;24.92;12.25;;;1.70;99.90;;;;;;1884541;76;21158;-91
2021/12/14 07:52:22;;;;;;;24.05;11.73;;;1.70;99.90;;;;;;1906851;75;21050;-90
2021/12/14 07:55:17;;;;;;;21.50;10.95;;;1.70;99.90;;;;;;1912105;74;21070;-90
2021/12/14 08:01:23;;;;;;;26.35;15.15;;;1.80;99.90;;;;;;2060691;68;27784;-89
2021/12/14 08:06:59;;;;;;;29.45;13.40;;;2.00;99.90;;;;;;1967892;72;22140;-90
2021/12/14 08:09:52;;;;;;;26.55;14.10;;;1.90;99.90;;;;;;1943055;73;21083;-90
2021/12/14 08:12:46;;;;;;;28.47;13.58;;;2.00;99.90;;;;;;1950610;73;21525;-90
2021/12/14 08:15:49;;;;;;;30.27;14.98;;;1.90;99.90;;;;;;1934851;73;21098;-90
2021/12/14 08:18:59;;;;;;;26.85;13.25;;;1.90;99.90;;;;;;1948895;73;21086;-90
2021/12/14 08:21:51;;;;;;;22.25;11.12;;;1.90;99.90;;;;;;1950998;73;21097;-90
2021/12/14 08:24:49;;;;;;;25.68;12.73;;;1.90;99.90;;;;;;1921520;73;21095;-90
2021/12/14 08:30:59;;;;;;;30.50;18.00;;;1.90;99.90;;;;;;1972610;71;27843;-91
2021/12/14 08:36:47;;;;;;;35.88;18.90;;;2.00;99.90;;;;;;1941934;72;28016;-91
2021/12/14 08:39:45;;;;;;;26.80;13.20;;;2.20;99.90;;;;;;1905944;75;21177;-90
2021/12/14 08:42:41;;;;;;;;;;;2.10;99.90;;;;;;1886618;75;21102;-90
2021/12/14 08:45:33;;;;;;;25.08;12.20;;;2.10;99.90;;;;;;1882753;75;20123;-91
2021/12/14 08:51:13;;;;;;;29.95;14.58;;;2.00;99.90;;;;;;1958064;72;22254;-90
2021/12/14 08:56:49;;;;;;;27.75;13.30;;;2.00;99.90;;;;;;1957136;72;22135;-90
2021/12/14 08:59:43;;;;;;;29.65;13.68;;;2.10;99.90;;;;;;1902926;75;21196;-90
2021/12/14 09:05:47;;;;;;;26.10;11.30;;;2.10;99.90;;;;;;2080976;68;22118;-90
2021/12/14 09:08:41;;;;;;;27.13;12.55;;;2.10;99.90;;;;;;2011687;70;21469;-90
2021/12/14 09:11:36;;;;;;;25.57;12.25;;;2.10;99.90;;;;;;2007579;70;21249;-89
2021/12/14 09:17:10;;;;;;;25.20;11.80;;;2.10;99.90;;;;;;1958372;72;22108;-90
2021/12/14 09:20:05;;;;;;;22.80;11.03;;;2.10;99.90;;;;;;1905457;75;21059;-90
2021/12/14 09:23:01;;;;;;;22.98;11.70;;;2.10;99.90;;;;;;1889900;75;21118;-89
2021/12/14 09:25:53;;;;;;;24.52;10.55;;;2.10;99.90;;;;;;1894519;75;21060;-90
2021/12/14 09:29:06;;;;;;;23.05;10.78;;;2.10;99.90;;;;;;1902276;75;21206;-89
2021/12/14 09:32:00;;;;;;;22.77;10.63;;;2.10;99.90;;;;;;1887682;75;21085;-90
2021/12/14 09:34:53;;;;;;;24.02;11.68;;;2.10;99.90;;;;;;1884564;75;21090;-90
2021/12/14 09:37:47;;;;;;;26.82;12.50;;;2.10;99.90;;;;;;1883450;75;21096;-90
2021/12/14 09:40:42;;;;;;;27.35;14.28;;;2.10;99.90;;;;;;1905434;75;21154;-91
2021/12/14 09:46:13;;;;;;;28.47;13.43;;;2.20;99.90;;;;;;1964010;72;22107;-91
2021/12/14 09:49:08;;;;;;;24.92;12.85;;;2.30;99.90;;;;;;1945182;73;21576;-90
2021/12/14 09:54:41;;;;;;;24.75;13.32;;;2.30;99.90;;;;;;1945781;72;22182;-91
2021/12/14 10:00:21;;;;;;;30.35;16.67;;;2.30;99.90;;;;;;1970750;72;22251;-90
2021/12/14 10:03:14;;;;;;;27.93;13.78;;;2.30;99.90;;;;;;1906414;75;21129;-90
2021/12/14 10:06:08;;;;;;;29.72;13.95;;;2.30;99.90;;;;;;1904963;75;21056;-90
2021/12/14 10:09:04;;;;;;;26.10;13.43;;;2.40;99.90;;;;;;1915413;74;21052;-90
2021/12/14 10:15:27;;;;;;;27.90;14.18;;;2.40;99.90;;;;;;1993008;71;22178;-91
2021/12/14 10:21:01;;;;;;;26.02;14.53;;;2.50;99.90;;;;;;1932968;72;22224;-90
2021/12/14 10:23:53;;;;;;;30.32;15.98;;;2.60;99.90;;;;;;1905458;75;21499;-91
2021/12/14 10:30:01;;;;;;;33.95;16.77;;;2.60;99.90;;;;;;1992971;71;22146;-91
2021/12/14 10:32:53;;;;;;;32.20;17.17;;;2.60;99.90;;;;;;2018503;70;21126;-92
2021/12/14 10:35:49;;;;;;;30.43;16.07;;;2.60;99.90;;;;;;2024592;70;21687;-92
2021/12/14 10:39:01;;;;;;;27.98;14.45;;;2.60;99.90;;;;;;2004756;70;21046;-90
2021/12/14 10:47:43;;;;;;;27.65;15.65;;;2.60;99.90;;;;;;1941878;72;22347;-90
2021/12/14 10:50:38;;;;;;;30.23;16.62;;;2.70;99.90;;;;;;1911580;74;21118;-90
2021/12/14 10:53:30;;;;;;;34.40;16.82;;;2.60;99.90;;;;;;1912097;74;21058;-89
2021/12/14 10:56:25;;;;;;;30.40;15.13;;;2.70;99.90;;;;;;1897234;74;21126;-91
2021/12/14 10:59:38;;;;;;;25.77;13.55;;;2.70;99.90;;;;;;1898557;74;21108;-90
2021/12/14 11:02:38;;;;;;;24.07;12.73;;;2.70;99.90;;;;;;1918932;74;21158;-90
2021/12/14 11:05:23;;;;;;;18.27;11.57;;;2.80;99.90;;;;;;1899253;75;21143;-92
2021/12/14 11:08:37;;;;;;;20.15;10.90;;;2.90;99.90;;;;;;1885171;74;21125;-90
2021/12/14 11:11:31;;;;;;;18.85;11.25;;;2.90;99.90;;;;;;1917546;74;21046;-89
2021/12/14 11:14:26;;;;;;;19.87;11.33;;;2.80;99.90;;;;;;1909183;75;21105;-90
2021/12/14 11:20:32;;;;;;;20.00;11.33;;;2.80;99.90;;;;;;1887169;75;21076;-90
2021/12/14 11:23:26;;;;;;;19.90;11.00;;;2.90;99.90;;;;;;1923533;74;21055;-90
2021/12/14 11:26:20;;;;;;;20.97;11.95;;;2.90;99.90;;;;;;1917647;74;21055;-90
2021/12/14 11:29:15;;;;;;;18.40;11.25;;;2.90;99.90;;;;;;1915212;74;21106;-91
2021/12/14 11:32:08;;;;;;;21.57;12.63;;;2.90;99.90;;;;;;1923638;74;21056;-90
2021/12/14 11:35:01;;;;;;;20.43;11.22;;;2.90;99.90;;;;;;1892811;74;21089;-91
2021/12/14 11:42:27;;;;;;;20.50;10.93;;;3.20;99.90;;;;;;1986834;71;22091;-90
2021/12/14 11:45:22;;;;;;;20.02;12.37;;;3.20;99.90;;;;;;1952571;73;21049;-91
2021/12/14 11:48:14;;;;;;;19.65;11.68;;;3.10;99.90;;;;;;2014414;70;21051;-91
2021/12/14 11:51:08;;;;;;;22.82;12.93;;;3.20;99.90;;;;;;2008528;70;21123;-92
2021/12/14 11:54:20;;;;;;;22.13;13.00;;;3.10;99.90;;;;;;2007933;70;21046;-90
2021/12/14 11:57:13;;;;;;;22.32;12.13;;;3.10;99.90;;;;;;2007493;70;21197;-91
2021/12/14 12:00:09;;;;;;;24.50;13.95;;;3.20;99.90;;;;;;2006446;70;21026;-91
2021/12/14 12:03:01;;;;;;;21.95;11.75;;;3.20;99.90;;;;;;2016722;70;21084;-91
2021/12/14 12:06:02;;;;;;;21.75;12.53;;;3.20;99.90;;;;;;2016699;70;21045;-90
2021/12/14 12:12:21;;;;;;;24.65;14.55;;;3.30;99.90;;;;;;1995959;70;21560;-91
2021/12/14 12:15:18;;;;;;;21.60;13.05;;;3.40;99.90;;;;;;2004581;70;21019;-90
2021/12/14 12:20:54;;;;;;;23.90;13.83;;;3.60;99.90;;;;;;1954985;72;20248;-90
2021/12/14 12:23:46;;;;;;;20.50;12.75;;;3.60;99.90;;;;;;1924213;74;21096;-90
2021/12/14 12:26:38;;;;;;;21.97;14.38;;;3.60;99.90;;;;;;1913289;74;21197;-91
2021/12/14 12:29:29;;;;;;;23.25;13.90;;;3.50;99.90;;;;;;1828652;77;21206;-92
2021/12/14 12:32:42;;;;;;;24.52;14.75;;;3.50;99.90;;;;;;1848801;77;21041;-90
2021/12/14 12:38:33;;;;;;;23.83;13.72;;;3.50;99.90;;;;;;1955698;72;22210;-91
2021/12/14 12:41:45;;;;;;;;;;;3.60;99.90;;;;;;1899429;75;21156;-90
2021/12/14 12:44:39;;;;;;;23.60;13.38;;;3.50;99.90;;;;;;1884961;75;20161;-89
2021/12/14 12:47:32;;;;;;;23.32;14.35;;;3.60;99.90;;;;;;1913719;75;21047;-91
2021/12/14 12:50:27;;;;;;;26.05;15.32;;;3.60;99.90;;;;;;1915976;75;21153;-91
2021/12/14 12:53:28;;;;;;;24.32;13.95;;;3.70;99.90;;;;;;1903586;75;21102;-91
2021/12/14 12:56:20;;;;;;;24.30;13.90;;;3.60;99.90;;;;;;1900612;75;21092;-90
2021/12/14 12:59:13;;;;;;;22.32;13.90;;;3.70;99.90;;;;;;1895772;75;21076;-92
2021/12/14 13:02:27;;;;;;;23.27;13.62;;;3.60;99.90;;;;;;1895958;75;21152;-90
2021/12/14 13:05:25;;;;;;;26.42;15.68;;;3.70;99.90;;;;;;1895756;75;21091;-90
2021/12/14 13:11:06;;;;;;;25.72;14.90;;;3.80;99.90;;;;;;1958206;72;22140;-90
2021/12/14 13:14:00;;;;;;;24.23;13.45;;;3.80;99.90;;;;;;1917919;75;21088;-90
2021/12/14 13:16:52;;;;;;;25.65;15.25;;;3.70;99.90;;;;;;1895431;75;21109;-91
2021/12/14 13:19:45;;;;;;;31.23;19.10;;;3.70;99.90;;;;;;1913885;75;21105;-91
2021/12/14 13:22:55;;;;;;;31.80;15.85;;;3.60;99.90;;;;;;1907320;75;21082;-90
2021/12/14 13:25:47;;;;;;;23.57;14.07;;;3.60;99.90;;;;;;1904461;75;21040;-91
2021/12/14 13:28:40;;;;;;;24.82;14.70;;;3.50;99.90;;;;;;1917513;75;21082;-91
2021/12/14 13:31:35;;;;;;;24.25;13.58;;;3.50;99.90;;;;;;1907615;75;21136;-90
2021/12/14 13:34:32;;;;;;;23.52;12.95;;;3.50;99.90;;;;;;1906882;75;21094;-91
2021/12/14 13:37:26;;;;;;;25.60;14.50;;;3.60;99.90;;;;;;1885768;75;21071;-90
2021/12/14 13:40:21;;;;;;;25.30;14.50;;;3.70;99.90;;;;;;1899097;75;21048;-91
2021/12/14 13:43:37;;;;;;;24.95;14.07;;;3.80;99.90;;;;;;1898330;75;21215;-91
2021/12/14 13:46:29;;;;;;;26.68;14.25;;;4.00;99.90;;;;;;1885182;76;21209;-91
2021/12/14 13:49:21;;;;;;;25.35;13.93;;;4.10;99.90;;;;;;1916274;75;21068;-90
2021/12/14 13:52:15;;;;;;;23.38;13.48;;;4.00;99.90;;;;;;1891779;75;21200;-90
2021/12/14 13:55:24;;;;;;;23.30;13.83;;;3.80;99.90;;;;;;1906588;75;21152;-91
2021/12/14 13:58:19;;;;;;;24.02;13.68;;;3.80;99.90;;;;;;1878870;76;21062;-91
2021/12/14 14:01:30;;;;;;;25.15;14.05;;;3.70;99.90;;;;;;1875217;76;21110;-91
2021/12/14 14:04:44;;;;;;;24.35;14.53;;;3.60;99.90;;;;;;1904713;75;21107;-91
2021/12/14 14:07:36;;;;;;;25.25;13.62;;;3.50;99.90;;;;;;1918958;75;21055;-91
2021/12/14 14:10:30;;;;;;;26.90;14.95;;;3.50;99.90;;;;;;1892687;75;21160;-90
2021/12/14 14:13:25;;;;;;;26.42;14.93;;;3.40;99.90;;;;;;1863113;76;21161;-90
2021/12/14 14:16:18;;;;;;;23.85;13.58;;;3.30;99.90;;;;;;1868511;76;21062;-90
2021/12/14 14:19:13;;;;;;;23.80;13.48;;;3.20;99.90;;;;;;1900737;75;21509;-90
2021/12/14 14:22:07;;;;;;;28.25;15.45;;;3.20;99.90;;;;;;1838569;77;21208;-91
2021/12/14 14:25:01;;;;;;;24.07;13.78;;;3.30;99.90;;;;;;1911245;74;21058;-91
2021/12/14 14:27:56;;;;;;;24.43;13.83;;;3.40;99.90;;;;;;1911430;74;21153;-90
2021/12/14 14:30:50;;;;;;;23.12;13.13;;;3.30;99.90;;;;;;1934047;74;21075;-91
2021/12/14 14:33:51;;;;;;;24.20;13.62;;;3.30;99.90;;;;;;1916078;74;21054;-93
2021/12/14 14:39:47;;;;;;;24.77;14.45;;;3.30;99.90;;;;;;1966252;72;22151;-90
2021/12/14 14:42:40;;;;;;;25.57;14.15;;;3.30;99.90;;;;;;1917472;75;21089;-91
2021/12/14 14:45:33;;;;;;;24.67;13.48;;;3.20;99.90;;;;;;1917942;75;21130;-91
2021/12/14 14:48:28;;;;;;;25.90;12.73;;;3.20;99.90;;;;;;1917774;75;21086;-90
2021/12/14 14:51:49;;;;;;;24.75;13.62;;;3.20;99.90;;;;;;1917657;75;21162;-91
2021/12/14 14:54:43;;;;;;;26.85;14.60;;;3.10;99.90;;;;;;1934405;73;21126;-89
2021/12/14 14:57:43;;;;;;;28.17;13.63;;;3.10;99.90;;;;;;1917502;75;21047;-90
2021/12/14 15:00:43;;;;;;;27.00;13.50;;;3.10;99.90;;;;;;1925933;73;21105;-90
2021/12/14 15:03:39;;;;;;;23.65;12.80;;;3.10;99.90;;;;;;1927734;73;21097;-90
2021/12/14 15:06:33;;;;;;;22.15;12.18;;;3.10;99.90;;;;;;1918901;73;21148;-90
2021/12/14 15:09:31;;;;;;;25.37;13.45;;;3.00;99.90;;;;;;1932171;73;21091;-90
2021/12/14 15:12:25;;;;;;;24.55;12.47;;;2.90;99.90;;;;;;1917748;75;21054;-91
2021/12/14 15:15:19;;;;;;;25.25;12.98;;;2.90;99.90;;;;;;1917702;75;21579;-91
2021/12/14 15:18:12;;;;;;;23.25;12.55;;;2.70;99.90;;;;;;1918079;75;21062;-90
2021/12/14 15:21:25;;;;;;;26.17;12.23;;;2.70;99.90;;;;;;1917571;75;21094;-91
2021/12/14 15:24:41;;;;;;;19.62;11.68;;;2.80;99.90;;;;;;1859421;76;21137;-90
2021/12/14 15:27:51;;;;;;;22.67;12.53;;;2.70;99.90;;;;;;1876995;76;21161;-90
2021/12/14 15:31:01;;;;;;;29.63;12.90;;;2.70;99.90;;;;;;1900364;75;21172;-91
2021/12/14 15:34:11;;;;;;;21.68;12.80;;;2.70;99.90;;;;;;1885802;75;21083;-90
2021/12/14 15:37:28;;;;;;;23.80;12.40;;;2.70;99.90;;;;;;1889005;75;21103;-91
2021/12/14 15:44:04;;;;;;;23.15;12.15;;;2.60;99.90;;;;;;2101846;68;22091;-90
2021/12/14 15:47:06;;;;;;;26.57;13.65;;;2.50;99.90;;;;;;2070751;69;21161;-90
2021/12/14 15:50:16;;;;;;;28.20;14.50;;;2.50;99.90;;;;;;2049161;69;21037;-91
2021/12/14 15:53:26;;;;;;;26.17;12.07;;;2.50;99.90;;;;;;2032871;70;21092;-90
2021/12/14 15:56:36;;;;;;;;;;;2.60;99.90;;;;;;2037962;70;21015;-91
2021/12/14 15:59:30;;;;;;;26.80;12.03;;;2.50;99.90;;;;;;2032374;70;20199;-91
2021/12/14 16:02:26;;;;;;;28.10;12.75;;;2.50;99.90;;;;;;2045206;69;21090;-91
2021/12/14 16:05:19;;;;;;;23.05;12.25;;;2.50;99.90;;;;;;2037346;69;21095;-90
2021/12/14 16:08:11;;;;;;;25.95;12.55;;;2.40;99.90;;;;;;1963785;72;21134;-91
2021/12/14 16:11:18;;;;;;;23.77;12.05;;;2.40;99.90;;;;;;2032566;70;21067;-91
2021/12/14 16:17:17;;;;;;;25.68;12.50;;;2.40;99.90;;;;;;2032056;70;21646;-91
2021/12/14 16:20:12;;;;;;;23.42;12.18;;;2.30;99.90;;;;;;2033813;70;21058;-90
2021/12/14 16:23:07;;;;;;;23.00;12.20;;;2.30;99.90;;;;;;2060174;69;21044;-91
2021/12/14 16:26:01;;;;;;;26.50;12.60;;;2.30;99.90;;;;;;2032407;70;21141;-90
2021/12/14 16:28:55;;;;;;;21.82;11.78;;;2.30;99.90;;;;;;2032244;70;21039;-91
2021/12/14 16:31:47;;;;;;;22.22;11.95;;;2.30;99.90;;;;;;2032368;70;21038;-89
2021/12/14 16:34:38;;;;;;;26.52;12.93;;;2.30;99.90;;;;;;2041819;69;21093;-91
2021/12/14 16:37:33;;;;;;;24.57;12.50;;;2.30;99.90;;;;;;2042213;69;21091;-90
2021/12/14 16:40:26;;;;;;;23.10;11.45;;;2.30;99.90;;;;;;2033664;70;21117;-92
2021/12/14 16:43:24;;;;;;;22.17;11.68;;;2.30;99.90;;;;;;2032330;70;21058;-92
2021/12/14 16:46:26;;;;;;;25.62;13.38;;;2.30;99.90;;;;;;2046744;69;21019;-90
2021/12/14 16:49:22;;;;;;;26.00;13.43;;;2.20;99.90;;;;;;2060083;69;21100;-92
2021/12/14 16:55:02;;;;;;;26.90;13.05;;;2.30;99.90;;;;;;1953801;72;22131;-90
2021/12/14 16:57:57;;;;;;;22.85;12.60;;;2.30;99.90;;;;;;1901513;75;21089;-90
2021/12/14 17:00:50;;;;;;;23.77;12.95;;;2.40;99.90;;;;;;1897216;75;21150;-90
2021/12/14 17:03:44;;;;;;;25.40;13.50;;;2.40;99.90;;;;;;1910077;75;21059;-91
2021/12/14 17:06:57;;;;;;;23.77;12.35;;;2.40;99.90;;;;;;1892470;75;21152;-92
2021/12/14 17:09:49;;;;;;;25.55;13.13;;;2.30;99.90;;;;;;1895509;75;21244;-90
2021/12/14 17:12:41;;;;;;;28.57;13.80;;;2.20;99.90;;;;;;1897739;75;21153;-92
2021/12/14 17:15:36;;;;;;;29.45;13.80;;;2.20;99.90;;;;;;1899580;75;21048;-92
2021/12/14 17:18:33;;;;;;;27.20;13.13;;;2.30;99.90;;;;;;1885612;75;21098;-91
2021/12/14 17:21:27;;;;;;;24.77;12.93;;;2.30;99.90;;;;;;1890631;75;21047;-91
2021/12/14 17:24:23;;;;;;;26.52;12.82;;;2.30;99.90;;;;;;1894215;75;21066;-89
2021/12/14 17:27:17;;;;;;;25.55;13.88;;;2.30;99.90;;;;;;1904068;75;21103;-90
2021/12/14 17:30:13;;;;;;;37.25;16.25;;;2.30;99.90;;;;;;1884780;76;21059;-90
2021/12/14 17:33:07;;;;;;;25.88;13.18;;;2.40;99.90;;;;;;1917924;75;21102;-91
2021/12/14 17:36:06;;;;;;;26.60;13.40;;;2.30;99.90;;;;;;1889609;75;21569;-90
2021/12/14 17:39:00;;;;;;;28.45;13.78;;;2.30;99.90;;;;;;1885420;75;21040;-91
2021/12/14 17:41:54;;;;;;;26.45;14.35;;;2.30;99.90;;;;;;1905602;75;21080;-91
2021/12/14 17:45:07;;;;;;;28.32;14.15;;;2.40;99.90;;;;;;1884924;76;21113;-90
2021/12/14 17:48:20;;;;;;;28.17;14.28;;;2.40;99.90;;;;;;1902643;75;21047;-90
2021/12/14 17:51:12;;;;;;;28.35;14.10;;;2.40;99.90;;;;;;1897946;75;21068;-91
2021/12/14 17:54:03;;;;;;;31.25;14.28;;;2.30;99.90;;;;;;1898120;74;21070;-90
2021/12/14 17:57:09;;;;;;;23.92;13.40;;;2.30;99.90;;;;;;1902737;74;21068;-90
2021/12/14 18:00:04;;;;;;;29.77;14.80;;;2.40;99.90;;;;;;1895021;74;21135;-90
2021/12/14 18:02:58;;;;;;;31.15;14.40;;;2.30;99.90;;;;;;1909144;74;21059;-91
2021/12/14 18:05:52;;;;;;;29.37;14.25;;;2.40;99.90;;;;;;1894216;74;21080;-90
2021/12/14 18:08:47;;;;;;;25.97;13.50;;;2.40;99.90;;;;;;1921586;73;21139;-89
2021/12/14 18:11:42;;;;;;;29.75;14.33;;;2.40;99.90;;;;;;1921331;74;21062;-91
2021/12/14 18:14:42;;;;;;;24.98;13.45;;;2.40;99.90;;;;;;1926378;74;21127;-90
2021/12/14 18:20:21;;;;;;;24.65;13.38;;;2.30;99.90;;;;;;1963601;72;22205;-91